Flight Track Log - Related Links

Times and Time Zones

All times are in EDT time to prevent confusion due to time zone crossing. See the N421AW flight status page for this flight to view local times or setup timezone preferences in your user account.

Time Position Orientation Groundspeed Altitude Reporting Facility
EDT Latitude Longitude Course Direction KTS MPH feet Rate Location/Type
Fri 04:51:54 PM 28.8111 -96.8647 100° East 82 94 2,000  Level Houston Center
Fri 04:52:56 PM 28.7947 -96.8356 123° Southeast 106 122 2,700 726 Climbing Houston Center
Fri 04:53:00 PM 28.7995 -96.5653 111° Southeast  Level FlightAware Approximate
Fri 04:53:58 PM 28.8075 -96.7975 69° East 124 143 3,500  Level Houston Center
Fri 04:54:00 PM 28.7822 -96.5094 100° East  Level FlightAware Approximate
Fri 04:55:00 PM 28.7732 -96.4508 100° East  Level FlightAware Approximate
Fri 04:55:00 PM 28.8186 -96.7611 71° East 123 142 4,100  Level Houston Center
Fri 04:56:00 PM 28.7642 -96.3923 100° East  Level FlightAware Approximate
Fri 04:56:02 PM 28.8322 -96.7142 72° East 127 146 5,000  Level Houston Center
Fri 04:57:00 PM 28.7552 -96.3337 100° East  Level FlightAware Approximate
Fri 04:57:05 PM 28.8372 -96.6736 82° East 128 147 5,600  Level Houston Center
Fri 04:58:07 PM 28.8392 -96.6261 87° East 144 166 6,100 581 Climbing Houston Center
Fri 04:59:09 PM 28.8481 -96.5781 78° East 152 175 6,800 532 Climbing Houston Center
Fri 05:00:11 PM 28.8553 -96.5308 80° East 152 175 7,200 532 Climbing Houston Center
Fri 05:01:13 PM 28.8625 -96.4708 82° East 159 183 7,900 581 Climbing Houston Center
Fri 05:02:15 PM 28.8714 -96.4197 79° East 164 189 8,400 484 Climbing Houston Center
Fri 05:03:17 PM 28.8783 -96.3672 81° East 167 192 8,900 242 Climbing Houston Center
Fri 05:04:19 PM 28.8847 -96.3081 83° East 183 211 8,900  Level Houston Center
Fri 05:05:22 PM 28.8922 -96.2456 82° East 196 226 8,900  Level Houston Center
Fri 05:06:24 PM 28.9033 -96.1833 78° East 200 230 8,900  Level Houston Center
Fri 05:07:26 PM 28.9142 -96.1078 81° East 201 231 8,900  Level Houston Center
Fri 05:08:28 PM 28.9233 -96.0456 80° East 201 231 8,900  Level Houston Center
Fri 05:09:30 PM 28.9317 -95.9833 81° East 200 230 8,900 57 Level Houston Center
Fri 05:10:14 PM 28.9397 -95.9336 80° East 200 230 9,000 97 Climbing Houston Center
Fri 05:10:32 PM 28.9397 -95.9233 90° East 198 228 9,000  Level Houston Center
Fri 05:11:34 PM 28.9489 -95.8614 80° East 198 228 9,000  Level Houston Center
Fri 05:11:53 PM 28.9536 -95.8294 80° East 196 226 9,000  Level Houston Center
Fri 05:12:36 PM 28.9583 -95.7875 83° East 197 227 9,000  Level Houston Center
Fri 05:13:38 PM 28.9672 -95.7261 81° East 197 227 9,000  Level Houston Center
Fri 05:13:56 PM 28.9742 -95.7075 67° East 195 224 9,000  Level Houston Center
Fri 05:14:40 PM 28.9858 -95.6658 72° East 201 231 9,000  Level Houston Center
Fri 05:15:42 PM 29.0069 -95.6086 67° East 199 229 9,000  Level Houston Center
Fri 05:15:59 PM 29.0161 -95.5881 63° Northeast 198 228 9,000  Level Houston Center
Fri 05:16:45 PM 29.0283 -95.5522 69° East 195 224 9,000  Level Houston Center
Fri 05:17:47 PM 29.0522 -95.4833 68° East 195 224 9,000  Level Houston Center
Fri 05:18:52 PM 29.0744 -95.4236 67° East 197 227 9,000  Level Houston Center
Fri 05:19:51 PM 29.0919 -95.3667 71° East 198 228 9,000  Level Houston Center
Fri 05:20:54 PM 29.1158 -95.3014 67° East 197 227 9,000  Level Houston Center
Fri 05:21:55 PM 29.1331 -95.2517 68° East 197 227 9,000  Level Houston Center
Fri 05:22:57 PM 29.1572 -95.1817 68° East 198 228 9,000  Level Houston Center
Fri 05:23:58 PM 29.1789 -95.1239 67° East 197 227 9,000  Level Houston Center
Fri 05:25:01 PM 29.1975 -95.0653 70° East 199 229 9,000  Level Houston Center
Fri 05:26:03 PM 29.2183 -95.0069 68° East 199 229 9,000  Level Houston Center
Fri 05:27:03 PM 29.2397 -94.9439 69° East 197 227 9,000  Level Houston Center
Fri 05:28:08 PM 29.2581 -94.8892 69° East 200 230 9,000  Level Houston Center
Fri 05:29:10 PM 29.2869 -94.8211 64° Northeast 201 231 9,000  Level Houston Center
Fri 05:30:12 PM 29.3158 -94.7661 59° Northeast 202 232 9,000  Level Houston Center
Fri 05:31:08 PM 29.3436 -94.7128 59° Northeast 203 234 9,000  Level Houston Center
Fri 05:32:16 PM 29.3742 -94.6561 58° Northeast 203 234 9,000  Level Houston Center
Fri 05:33:11 PM 29.4036 -94.5972 60° Northeast 203 234 9,000  Level Houston Center
Fri 05:34:20 PM 29.4356 -94.5333 60° Northeast 203 234 9,000  Level Houston Center
Fri 05:35:20 PM 29.4633 -94.4769 60° Northeast 204 235 9,000  Level Houston Center
Fri 05:36:25 PM 29.4911 -94.4203 61° Northeast 204 235 9,000  Level Houston Center
Fri 05:37:23 PM 29.5211 -94.3611 60° Northeast 202 232 9,000  Level Houston Center
Fri 05:38:29 PM 29.5475 -94.3097 59° Northeast 204 235 9,000  Level Houston Center
Fri 05:39:26 PM 29.5792 -94.2478 60° Northeast 202 232 9,000  Level Houston Center
Fri 05:40:33 PM 29.6089 -94.1875 60° Northeast 202 232 9,000 -98 Level Houston Center
Fri 05:41:29 PM 29.6350 -94.1347 60° Northeast 203 234 8,800 -615 Descending Houston Center
Fri 05:42:30 PM 29.6642 -94.0683 63° Northeast 234 269 7,800 -878 Descending Houston Center
Fri 05:43:32 PM 29.6906 -93.9972 67° East 230 265 7,000 -439 Descending Houston Center
Fri 05:44:33 PM 29.7164 -93.9408 62° Northeast 202 232 6,900 -49 Descending Houston Center
Fri 05:45:35 PM 29.7356 -93.8828 69° East 181 208 6,900  Level Houston Center
Fri 05:46:37 PM 29.7525 -93.8228 72° East 183 211 6,900 45 Level Houston Center
Fri 05:47:48 PM 29.7714 -93.7547 72° East 184 212 7,000 45 Climbing Houston Center
Fri 05:48:50 PM 29.7886 -93.6989 70° East 186 214 7,000  Level Houston Center
Fri 05:49:52 PM 29.8061 -93.6436 70° East 184 212 7,000 -242 Level Houston Center
Fri 05:50:54 PM 29.8242 -93.5867 70° East 189 217 6,500 -726 Descending Houston Center
Fri 05:51:56 PM 29.8394 -93.5200 75° East 210 242 5,500 -726 Descending Houston Center
Fri 05:52:58 PM 29.8581 -93.4522 72° East 221 254 5,000 -242 Descending Houston Center
Fri 05:54:00 PM 29.8847 -93.3861 65° Northeast 195 224 5,000 -484 Level Houston Center
Fri 05:55:02 PM 29.9056 -93.3306 67° East 190 219 4,000 -960 Descending Houston Center
Fri 05:56:05 PM 29.9250 -93.2678 70° East 197 227 3,000 -528 Descending Houston Center
Fri 05:57:07 PM 29.9428 -93.2081 71° East 200 230 2,900 -48 Descending Houston Center
Fri 05:58:09 PM 29.9547 -93.1606 74° East 180 207 2,900  Level Houston Center
Fri 05:59:11 PM 29.9689 -93.1072 73° East 157 181 2,900 -339 Level Houston Center
Fri 06:00:13 PM 29.9833 -93.0594 71° East 154 177 2,200 -677 Descending Houston Center
Fri 06:01:15 PM 30.0006 -93.0019 71° East 171 197 1,500 -290 Descending Houston Center
Fri 06:02:17 PM 30.0222 -92.9536 63° Northeast 173 199 1,600  Climbing Houston Center
Fri 06:03:19 PM 30.0361 -92.9086 70° East 163 188 1,500  Descending Houston Center
Fri 06:04:21 PM 30.0492 -92.8544 74° East 153 176 1,600 48 Climbing Houston Center
Fri 06:05:23 PM 30.0608 -92.8106 73° East 148 170 1,600  Level Houston Center
Fri 06:06:26 PM 30.0739 -92.7678 71° East 147 169 1,600  Level Houston Center
Fri 06:08:00 PM 30.0982 -92.6858 71° East  Level FlightAware Approximate
Fri 06:15:00 PM 30.1500 -92.4833 90° East  Level FlightAware Approximate
Fri 06:16:00 PM 30.1618 -92.4840 90° East  Level Estimated
Fri 06:17:00 PM 30.1618 -92.4840 90° East  Level Estimated
Fri 06:18:00 PM 30.1618 -92.4840 90° East  Level Estimated
Fri 06:19:00 PM 30.1618 -92.4840 90° East  Level Estimated
Fri 06:20:00 PM 30.1618 -92.4840 90° East  Level Estimated
Fri 06:21:00 PM 30.1618 -92.4840 90° East  Level Estimated
Fri 06:22:00 PM 30.1618 -92.4840 90° East  Level Estimated
Fri 06:23:00 PM 30.1618 -92.4840 90° East  Level Estimated
Fri 06:24:00 PM 30.1618 -92.4840 90° East  Level Estimated
Fri 06:25:00 PM 30.1618 -92.4840 90° East  Level Estimated
Fri 06:26:00 PM 30.1618 -92.4840 90° East  Level Estimated
Fri 06:27:00 PM 30.1618 -92.4840 90° East  Level Estimated
Fri 06:28:00 PM 30.1618 -92.4840 90° East  Level Estimated
Fri 06:29:00 PM 30.1618 -92.4840 90° East  Level Estimated
Fri 06:30:00 PM 30.1618 -92.4840 90° East  Level Estimated

Login

Don't have an account? Register now (free) for customized features, flight alerts, and more!